CYQG

Windsor Airport

Windsor, , Canada
METAR CYQG 190500Z AUTO 06006KT 9SM SCT030 SCT055 OVC083 M03/M08 A3023 RMK SLP247
Observed Flight Rules
Jan-19 @ 05:00 UTC (an hour ago) Visual Flight Rules
Wind Visibility Clouds
60° at 6 knots 9 miles
  • Scattered at 3,000' AGL
  • Scattered at 5,500' AGL
  • Overcast at 8,300' AGL
Temperatures Readings
Current -3°C / 27°F
Dewpoint -8°C / 18°F
Humidity 69%
Altimeter 30.23" Hg
Pressure 1024.7 hPa
Elevation 190
METAR CYQG 190500Z AUTO 06006KT 9SM SCT030 SCT055 OVC083 M03/M08 A3023 RMK SLP247
Observed Flight Rules
Jan-19 @ 05:00 UTC
(an hour ago)
VFR
Wind Visibility
60° at 6 knots 9 miles
Clouds
  • Scattered at 3,000' AGL
  • Scattered at 5,500' AGL
  • Overcast at 8,300' AGL
Temperature Dewpoint
-3°C / 27°F -8°C / 18°F
Humidity Altimeter Pressure
69% 30.23" Hg 1024.7 hPa